Time;durP1;ratioP1;P1;durP2;ratioP2;P2;SDS_P1;SDS_P2;PMS_P1;PMS_P2;Temp;Humidity;BMP_temperature;BMP_pressure;BME280_temperature;BME280_humidity;BME280_pressure;Samples;Min_cycle;Max_cycle;Signal;HPM_P1;HPM_P2
2023/11/01 00:00:15;;;;;;;0.47;0.47;;;;;;;1.36;90.02;99288.00;5005405;28;20030;-72
2023/11/01 00:02:41;;;;;;;2.28;0.98;;;;;;;1.30;90.07;99276.84;5005285;28;20038;-72
2023/11/01 00:05:06;;;;;;;1.42;1.33;;;;;;;1.02;90.03;99248.41;5005431;28;20482;-71
2023/11/01 00:07:32;;;;;;;0.63;0.57;;;;;;;1.36;90.20;99297.34;5006173;28;20030;-72
2023/11/01 00:09:57;;;;;;;0.40;0.40;;;;;;;1.32;90.54;99299.03;5009191;28;20018;-73
2023/11/01 00:12:24;;;;;;;1.10;0.60;;;;;;;1.38;90.14;99305.06;5009052;28;20030;-72
2023/11/01 00:14:49;;;;;;;0.50;0.50;;;;;;;1.33;90.42;99305.00;5009063;28;20025;-71
2023/11/01 00:17:14;;;;;;;0.70;0.70;;;;;;;1.31;90.28;99304.16;5009159;28;20026;-71
2023/11/01 00:19:40;;;;;;;0.50;0.50;;;;;;;1.28;90.28;99304.09;5007776;28;20033;-73
2023/11/01 00:22:05;;;;;;;0.50;0.50;;;;;;;1.31;90.39;99317.78;5007314;28;20054;-72
2023/11/01 00:24:31;;;;;;;0.50;0.50;;;;;;;1.30;90.23;99312.63;5007747;28;20088;-72
2023/11/01 00:26:56;;;;;;;0.40;0.40;;;;;;;1.33;90.39;99323.78;5007576;28;20025;-72
2023/11/01 00:29:21;;;;;;;0.43;0.43;;;;;;;1.23;90.12;99322.78;5008654;28;20407;-72
2023/11/01 00:31:47;;;;;;;0.50;0.50;;;;;;;1.31;90.22;99335.66;5008562;28;20102;-73
2023/11/01 00:34:12;;;;;;;0.45;0.45;;;;;;;1.34;90.23;99324.63;5008867;28;20032;-73
2023/11/01 00:36:37;;;;;;;0.90;0.80;;;;;;;1.28;90.02;99330.53;5007257;28;20037;-72
2023/11/01 00:39:03;;;;;;;0.60;0.60;;;;;;;1.32;90.26;99342.53;5007295;28;20018;-73
2023/11/01 00:41:28;;;;;;;0.60;0.60;;;;;;;1.30;90.20;99339.06;5008429;28;20022;-72
2023/11/01 00:43:54;;;;;;;0.50;0.50;;;;;;;1.39;90.36;99333.19;5008705;28;20037;-72
2023/11/01 00:46:19;;;;;;;0.40;0.40;;;;;;;1.38;90.38;99325.50;5023923;28;20022;-71
2023/11/01 00:48:45;;;;;;;0.60;0.50;;;;;;;1.39;90.16;99332.38;5007296;28;20533;-71
2023/11/01 00:51:10;;;;;;;0.50;0.50;;;;;;;1.35;89.93;99327.22;5008279;28;20026;-72
2023/11/01 00:53:35;;;;;;;0.57;0.57;;;;;;;1.38;89.98;99338.31;5008473;28;20393;-71
2023/11/01 00:56:01;;;;;;;0.50;0.50;;;;;;;1.35;89.82;99341.69;5008373;28;20030;-72
2023/11/01 00:58:26;;;;;;;0.40;0.40;;;;;;;1.32;89.75;99347.63;5008287;28;20030;-72
2023/11/01 01:00:51;;;;;;;0.85;0.70;;;;;;;1.32;89.91;99344.22;5008138;28;20053;-72
2023/11/01 01:03:17;;;;;;;0.40;0.40;;;;;;;1.27;89.99;99339.03;5007159;28;20026;-71
2023/11/01 01:05:42;;;;;;;0.82;0.50;;;;;;;1.22;89.96;99335.56;5008328;28;20082;-72
2023/11/01 01:08:08;;;;;;;15.05;1.02;;;;;;;1.17;90.33;99327.84;5008228;28;20049;-71
2023/11/01 01:10:33;;;;;;;0.52;0.52;;;;;;;1.25;90.00;99337.31;5007575;28;20022;-72
2023/11/01 01:12:59;;;;;;;0.98;0.95;;;;;;;1.28;90.04;99348.41;5008116;28;20026;-71
2023/11/01 01:15:25;;;;;;;0.40;0.40;;;;;;;1.26;90.02;99339.03;5023060;28;20030;-72
2023/11/01 01:17:52;;;;;;;0.43;0.43;;;;;;;1.18;89.78;99326.16;5007715;28;20025;-71
2023/11/01 01:20:18;;;;;;;1.20;0.75;;;;;;;1.19;89.81;99335.53;5006017;28;20026;-71
2023/11/01 01:22:43;;;;;;;2.60;0.93;;;;;;;1.26;89.88;99346.69;5007717;28;20102;-72
2023/11/01 01:25:09;;;;;;;0.52;0.52;;;;;;;1.28;90.13;99350.13;5007837;28;20023;-72
2023/11/01 01:27:34;;;;;;;1.42;1.42;;;;;;;1.24;89.86;99339.00;5007850;28;20030;-72
2023/11/01 01:29:59;;;;;;;0.60;0.60;;;;;;;1.26;89.80;99341.59;5007860;28;20086;-71
2023/11/01 01:32:25;;;;;;;0.40;0.40;;;;;;;1.23;89.73;99343.25;5007888;28;20035;-71
2023/11/01 01:34:50;;;;;;;8.77;0.77;;;;;;;1.25;89.77;99345.00;5007754;28;20082;-71
2023/11/01 01:37:16;;;;;;;0.43;0.43;;;;;;;1.25;89.81;99356.06;5007439;28;20033;-71
2023/11/01 01:39:41;;;;;;;0.50;0.50;;;;;;;1.25;90.12;99343.28;5007722;28;20034;-71
2023/11/01 01:42:06;;;;;;;0.47;0.47;;;;;;;1.19;89.81;99341.50;5007548;28;20026;-71
2023/11/01 01:44:32;;;;;;;0.73;0.73;;;;;;;1.20;89.64;99347.47;5007468;28;20026;-72
2023/11/01 01:46:57;;;;;;;0.50;0.50;;;;;;;1.16;89.63;99351.69;5006242;28;20026;-71
2023/11/01 01:49:24;;;;;;;0.63;0.63;;;;;;;1.20;89.85;99357.69;5007256;28;20411;-71
2023/11/01 01:51:49;;;;;;;0.40;0.40;;;;;;;1.17;89.69;99363.63;5007086;28;20027;-71
2023/11/01 01:54:15;;;;;;;0.50;0.50;;;;;;;1.19;89.65;99359.41;5007291;28;20056;-72
2023/11/01 01:56:41;;;;;;;1.50;1.02;;;;;;;1.18;89.49;99361.94;5007195;28;20091;-71
2023/11/01 01:59:06;;;;;;;0.60;0.60;;;;;;;1.31;89.70;99370.63;5007341;28;20026;-71
2023/11/01 02:01:32;;;;;;;1.42;1.10;;;;;;;1.21;89.88;99354.31;5007118;28;20037;-71
2023/11/01 02:03:58;;;;;;;0.40;0.40;;;;;;;1.19;89.96;99346.63;5021781;28;20037;-71
2023/11/01 02:06:24;;;;;;;0.50;0.50;;;;;;;1.29;89.47;99368.06;5007071;28;20038;-70
2023/11/01 02:08:49;;;;;;;0.60;0.60;;;;;;;1.34;89.28;99371.50;5006789;28;20045;-72
2023/11/01 02:11:15;;;;;;;0.82;0.70;;;;;;;1.36;89.51;99379.19;5005650;28;20033;-71
2023/11/01 02:13:41;;;;;;;0.40;0.40;;;;;;;1.32;89.48;99377.47;5006692;28;20037;-71
2023/11/01 02:16:06;;;;;;;0.40;0.40;;;;;;;1.38;89.02;99367.31;5006738;28;20031;-71
2023/11/01 02:18:32;;;;;;;0.43;0.43;;;;;;;1.36;89.08;99366.41;5006749;28;20027;-71
2023/11/01 02:20:58;;;;;;;0.63;0.63;;;;;;;1.36;89.46;99356.19;5021624;28;20048;-71
2023/11/01 02:23:34;;;;;;;0.40;0.40;;;;;;;1.35;89.40;99359.59;5006563;28;20136;-70
2023/11/01 02:26:00;;;;;;;0.77;0.77;;;;;;;1.32;89.41;99362.97;5005453;28;20018;-71
2023/11/01 02:28:26;;;;;;;1.25;1.17;;;;;;;1.31;89.20;99375.75;5006751;28;20041;-71
2023/11/01 02:30:51;;;;;;;0.63;0.63;;;;;;;1.25;89.11;99373.94;5005879;28;20030;-72
2023/11/01 02:33:17;;;;;;;0.40;0.40;;;;;;;1.20;89.05;99388.38;5005464;28;20037;-71
2023/11/01 02:35:42;;;;;;;0.55;0.55;;;;;;;1.16;89.50;99374.72;5006395;28;20030;-71
2023/11/01 02:38:09;;;;;;;0.45;0.45;;;;;;;1.26;89.81;99377.38;5006343;28;20022;-71
2023/11/01 02:40:35;;;;;;;0.50;0.50;;;;;;;1.25;89.73;99378.22;5021403;28;20509;-70
2023/11/01 02:43:00;;;;;;;0.40;0.40;;;;;;;1.18;89.58;99369.63;4988983;28;20026;-70
2023/11/01 02:45:26;;;;;;;0.50;0.50;;;;;;;1.17;89.04;99376.41;5004920;28;20364;-71
2023/11/01 02:47:52;;;;;;;0.50;0.50;;;;;;;1.17;89.44;99380.66;5006265;28;20025;-71
2023/11/01 02:50:19;;;;;;;0.45;0.45;;;;;;;1.09;89.14;99380.56;5006404;28;20034;-71
2023/11/01 02:52:46;;;;;;;0.70;0.70;;;;;;;1.05;89.30;99383.91;5006123;28;20230;-72
2023/11/01 02:55:13;;;;;;;0.57;0.57;;;;;;;0.95;89.13;99377.81;5005077;28;20034;-71
2023/11/01 02:57:39;;;;;;;0.60;0.60;;;;;;;0.86;89.70;99373.44;5006058;28;20041;-73
2023/11/01 03:00:06;;;;;;;0.50;0.50;;;;;;;0.90;89.55;99377.75;5006456;28;20526;-73
2023/11/01 03:02:32;;;;;;;0.45;0.45;;;;;;;0.90;89.79;99379.44;5006097;28;20034;-72
2023/11/01 03:04:58;;;;;;;0.60;0.60;;;;;;;0.95;89.80;99385.47;5006184;28;20544;-71
2023/11/01 03:07:23;;;;;;;0.40;0.40;;;;;;;0.93;89.73;99385.47;5005823;28;20050;-72
2023/11/01 03:09:49;;;;;;;0.70;0.70;;;;;;;0.99;89.95;99389.81;5005884;28;20033;-72
2023/11/01 03:12:14;;;;;;;0.40;0.40;;;;;;;0.96;89.56;99389.75;5005934;28;20509;-72
2023/11/01 03:14:39;;;;;;;0.50;0.50;;;;;;;0.94;89.08;99384.63;5005990;28;20078;-71
2023/11/01 03:17:09;;;;;;;0.50;0.50;;;;;;;0.91;89.67;99386.28;5005894;28;20026;-72
2023/11/01 03:19:34;;;;;;;0.50;0.50;;;;;;;0.90;89.54;99387.97;5005860;28;20022;-71
2023/11/01 03:22:00;;;;;;;0.50;0.50;;;;;;;0.87;89.34;99393.03;5004170;28;20061;-71
2023/11/01 03:24:25;;;;;;;1.00;1.00;;;;;;;0.89;89.96;99406.72;5006053;28;20099;-72
2023/11/01 03:26:50;;;;;;;0.75;0.75;;;;;;;0.94;89.74;99411.88;5006028;28;20018;-71
2023/11/01 03:29:16;;;;;;;0.90;0.90;;;;;;;0.97;90.00;99401.72;5005830;28;20026;-71
2023/11/01 03:31:42;;;;;;;1.95;0.73;;;;;;;1.09;90.28;99411.22;5005539;28;20105;-71
2023/11/01 03:34:08;;;;;;;0.50;0.50;;;;;;;1.17;90.52;99417.31;5005767;28;20415;-71
2023/11/01 03:36:33;;;;;;;0.90;0.90;;;;;;;1.18;90.20;99413.91;5005671;28;20026;-72
2023/11/01 03:38:58;;;;;;;6.30;1.80;;;;;;;1.17;89.82;99409.66;5005481;28;20493;-71
2023/11/01 03:41:24;;;;;;;5.95;1.00;;;;;;;1.26;90.03;99413.19;5006874;28;20128;-72
2023/11/01 03:43:49;;;;;;;0.70;0.63;;;;;;;1.29;90.27;99410.66;5012120;28;20030;-71
2023/11/01 03:46:15;;;;;;;0.70;0.70;;;;;;;1.31;90.15;99411.56;5011087;28;20034;-71
2023/11/01 03:48:40;;;;;;;0.70;0.70;;;;;;;1.31;90.50;99401.31;5012262;28;20105;-71
2023/11/01 03:51:05;;;;;;;0.50;0.50;;;;;;;1.39;90.07;99411.66;5011884;28;20033;-72
2023/11/01 03:53:31;;;;;;;0.70;0.70;;;;;;;1.45;90.25;99410.00;5011949;28;20026;-72
2023/11/01 03:55:57;;;;;;;0.90;0.90;;;;;;;1.43;90.28;99406.59;5011985;28;20026;-71
2023/11/01 03:58:22;;;;;;;0.80;0.80;;;;;;;1.43;89.99;99415.94;5011999;28;20078;-71
2023/11/01 04:00:48;;;;;;;0.50;0.50;;;;;;;1.48;89.92;99425.41;5011937;28;20032;-71
2023/11/01 04:03:13;;;;;;;0.40;0.40;;;;;;;1.51;90.08;99423.72;5010830;28;20030;-71
2023/11/01 04:05:39;;;;;;;0.77;0.63;;;;;;;1.50;90.02;99417.78;5012075;28;20114;-71
2023/11/01 04:08:05;;;;;;;0.50;0.50;;;;;;;1.49;90.27;99423.69;5011696;28;20479;-73
2023/11/01 04:10:30;;;;;;;0.40;0.40;;;;;;;1.50;90.16;99429.69;5011961;28;20026;-69
2023/11/01 04:12:56;;;;;;;0.50;0.50;;;;;;;1.45;89.67;99425.34;5011943;28;20053;-71
2023/11/01 04:15:21;;;;;;;0.40;0.40;;;;;;;1.45;89.31;99427.91;5012057;28;20029;-72
2023/11/01 04:17:46;;;;;;;0.50;0.50;;;;;;;1.44;89.19;99420.22;5011820;28;20023;-71
2023/11/01 04:20:12;;;;;;;0.60;0.60;;;;;;;1.43;89.18;99426.19;5011985;28;20486;-71
2023/11/01 04:22:38;;;;;;;0.52;0.52;;;;;;;1.41;89.10;99423.59;5010346;28;20042;-72
2023/11/01 04:25:10;;;;;;;0.50;0.50;;;;;;;1.36;88.98;99432.91;4994212;28;20025;-71
2023/11/01 04:27:45;;;;;;;0.60;0.60;;;;;;;1.27;89.03;99425.13;5010868;28;20037;-72
2023/11/01 04:30:12;;;;;;;0.47;0.47;;;;;;;1.25;88.67;99437.03;5011797;28;20541;-71
2023/11/01 04:32:39;;;;;;;0.60;0.60;;;;;;;1.28;88.75;99435.38;5011656;28;20387;-71
2023/11/01 04:35:14;;;;;;;1.25;0.63;;;;;;;1.33;88.77;99430.31;5011753;28;20049;-72
2023/11/01 04:37:41;;;;;;;0.68;0.52;;;;;;;1.35;89.15;99426.97;5011586;28;20492;-71
2023/11/01 04:40:07;;;;;;;0.55;0.55;;;;;;;1.42;89.25;99427.88;5011661;28;20466;-71
2023/11/01 04:42:37;;;;;;;4.57;1.20;;;;;;;1.48;89.21;99432.22;5010246;28;20053;-71
2023/11/01 04:45:02;;;;;;;0.40;0.40;;;;;;;1.51;89.33;99433.94;5011832;28;20026;-71
2023/11/01 04:47:28;;;;;;;0.40;0.40;;;;;;;1.54;89.88;99439.97;5011593;28;20054;-71
2023/11/01 04:49:53;;;;;;;0.40;0.40;;;;;;;1.50;89.54;99433.13;5011656;28;20038;-71
2023/11/01 04:52:19;;;;;;;0.50;0.50;;;;;;;1.46;89.80;99431.34;5011258;28;20074;-70
2023/11/01 04:54:44;;;;;;;0.40;0.40;;;;;;;1.48;89.33;99434.78;5007555;28;20050;-71
2023/11/01 04:57:10;;;;;;;0.60;0.60;;;;;;;1.45;89.14;99444.97;5008351;28;20490;-71
2023/11/01 04:59:35;;;;;;;0.40;0.40;;;;;;;1.43;88.89;99438.97;5007137;28;20193;-71
2023/11/01 05:02:01;;;;;;;0.95;0.75;;;;;;;1.42;89.48;99429.59;5008250;28;20053;-71
2023/11/01 05:04:26;;;;;;;0.50;0.50;;;;;;;1.46;89.51;99432.22;5008251;28;20026;-71
2023/11/01 05:06:51;;;;;;;0.50;0.50;;;;;;;1.22;89.10;99413.13;5023200;28;20014;-71
2023/11/01 05:09:17;;;;;;;0.60;0.60;;;;;;;1.30;88.97;99438.81;5006771;28;20057;-71
2023/11/01 05:11:45;;;;;;;0.50;0.50;;;;;;;1.25;89.35;99437.03;5006664;28;20033;-71
2023/11/01 05:14:11;;;;;;;0.40;0.40;;;;;;;1.19;89.52;99435.25;5007910;28;20030;-74
2023/11/01 05:16:36;;;;;;;0.93;0.88;;;;;;;1.11;89.19;99443.66;5006596;28;20030;-70
2023/11/01 05:19:02;;;;;;;0.43;0.43;;;;;;;1.08;89.16;99440.19;5008065;28;20054;-71
2023/11/01 05:21:27;;;;;;;0.55;0.55;;;;;;;1.13;89.37;99456.47;5007603;28;20030;-71
2023/11/01 05:23:52;;;;;;;0.47;0.47;;;;;;;1.10;89.00;99446.22;5007742;28;20034;-72
2023/11/01 05:26:18;;;;;;;0.50;0.50;;;;;;;1.05;89.03;99456.38;5007814;28;20026;-72
2023/11/01 05:28:43;;;;;;;0.40;0.40;;;;;;;0.98;89.18;99445.19;5007892;28;20022;-72
2023/11/01 05:31:09;;;;;;;0.38;0.38;;;;;;;1.00;89.46;99463.09;5007635;28;20034;-72
2023/11/01 05:33:35;;;;;;;0.63;0.63;;;;;;;0.94;89.16;99460.44;5007838;28;20037;-72
2023/11/01 05:36:06;;;;;;;0.60;0.60;;;;;;;0.90;89.45;99451.88;5007581;28;20030;-72
2023/11/01 05:38:33;;;;;;;0.52;0.52;;;;;;;0.98;89.67;99478.41;5007427;28;20474;-72
2023/11/01 05:40:58;;;;;;;0.47;0.47;;;;;;;0.90;89.40;99468.88;5006231;28;20034;-71
2023/11/01 05:43:24;;;;;;;0.50;0.50;;;;;;;0.89;89.44;99475.72;5007801;28;20018;-71
2023/11/01 05:45:49;;;;;;;0.50;0.50;;;;;;;0.77;88.75;99468.69;5006193;28;20019;-72
2023/11/01 05:48:15;;;;;;;0.50;0.50;;;;;;;0.69;88.97;99476.22;5006351;28;20030;-69
2023/11/01 05:50:43;;;;;;;0.45;0.45;;;;;;;0.53;89.25;99452.13;5006270;28;20447;-73
2023/11/01 05:53:10;;;;;;;0.50;0.50;;;;;;;0.53;88.94;99471.72;5006795;28;20026;-73
2023/11/01 05:55:39;;;;;;;2.67;0.60;;;;;;;0.41;88.28;99473.22;5006566;28;20030;-73
2023/11/01 05:58:08;;;;;;;0.50;0.50;;;;;;;0.42;88.81;99480.03;5006639;28;20076;-74
2023/11/01 06:00:34;;;;;;;0.52;0.52;;;;;;;0.38;89.14;99483.38;5007136;28;20049;-73
2023/11/01 06:03:00;;;;;;;1.15;1.10;;;;;;;0.23;88.46;99472.03;5007214;28;20145;-72
2023/11/01 06:05:25;;;;;;;0.50;0.50;;;;;;;0.10;88.28;99473.50;5007285;28;20064;-73
2023/11/01 06:07:51;;;;;;;1.40;1.30;;;;;;;0.11;88.00;99487.97;5007015;28;20525;-73
2023/11/01 06:10:17;;;;;;;0.60;0.60;;;;;;;0.02;88.30;99480.13;5007145;28;20034;-73
2023/11/01 06:12:42;;;;;;;0.40;0.40;;;;;;;-0.02;88.68;99484.31;4989514;28;20049;-72
2023/11/01 06:15:10;;;;;;;0.98;0.98;;;;;;;-0.03;88.61;99503.00;5005061;28;20030;-73
2023/11/01 06:17:37;;;;;;;0.43;0.43;;;;;;;-0.08;88.70;99499.50;5006870;28;20030;-72
2023/11/01 06:20:04;;;;;;;0.95;0.65;;;;;;;-0.13;88.62;99506.22;4989351;28;20023;-73
2023/11/01 06:22:31;;;;;;;0.50;0.50;;;;;;;-0.11;88.61;99512.19;4988738;28;20193;-73
2023/11/01 06:24:57;;;;;;;0.60;0.60;;;;;;;-0.16;88.88;99507.00;5006917;28;20534;-73
2023/11/01 06:27:24;;;;;;;0.45;0.45;;;;;;;-0.20;88.60;99504.34;5006602;28;20047;-71
2023/11/01 06:29:49;;;;;;;0.50;0.50;;;;;;;-0.17;88.51;99509.53;5021607;28;20026;-70
2023/11/01 06:32:15;;;;;;;1.05;1.02;;;;;;;-0.21;88.47;99517.94;5005225;28;20034;-69
2023/11/01 06:34:40;;;;;;;0.70;0.70;;;;;;;-0.22;88.41;99523.88;5006682;28;20026;-73
2023/11/01 06:37:06;;;;;;;0.50;0.50;;;;;;;-0.22;88.37;99522.19;5006429;28;20030;-73
2023/11/01 06:39:31;;;;;;;0.50;0.50;;;;;;;-0.27;88.47;99524.63;5006361;28;20030;-72
2023/11/01 06:41:57;;;;;;;0.60;0.60;;;;;;;-0.38;88.50;99503.13;5005275;28;20026;-73
2023/11/01 06:44:23;;;;;;;0.50;0.50;;;;;;;-0.23;88.48;99540.00;5005109;28;20382;-73
2023/11/01 06:46:49;;;;;;;0.50;0.50;;;;;;;-0.25;88.54;99534.88;5021714;28;20014;-73
2023/11/01 06:49:15;;;;;;;0.70;0.60;;;;;;;-0.23;88.62;99537.44;5006433;28;20035;-72
2023/11/01 06:51:41;;;;;;;0.40;0.40;;;;;;;-0.22;88.56;99534.09;5006282;28;20037;-74
2023/11/01 06:54:07;;;;;;;0.98;0.80;;;;;;;-0.29;88.70;99516.06;5006106;28;20026;-72
2023/11/01 06:56:32;;;;;;;0.60;0.60;;;;;;;-0.20;88.92;99528.19;5004922;28;20037;-73
2023/11/01 06:58:57;;;;;;;1.08;1.00;;;;;;;-0.18;88.88;99525.66;5006238;28;20082;-72
2023/11/01 07:01:23;;;;;;;0.75;0.75;;;;;;;-0.10;88.96;99531.81;5004724;28;20027;-73
2023/11/01 07:03:48;;;;;;;0.40;0.40;;;;;;;-0.04;88.92;99526.81;5004950;28;20041;-73
2023/11/01 07:06:14;;;;;;;0.50;0.50;;;;;;;0.05;89.29;99522.75;5004963;28;20033;-72
2023/11/01 07:08:42;;;;;;;1.77;0.80;;;;;;;0.23;89.44;99525.66;5006072;28;20018;-73
2023/11/01 07:11:09;;;;;;;0.82;0.75;;;;;;;0.58;90.07;99522.03;5006166;28;20032;-72
2023/11/01 07:13:34;;;;;;;0.68;0.68;;;;;;;1.09;90.54;99531.38;5006137;28;20054;-73
2023/11/01 07:16:00;;;;;;;3.05;0.90;;;;;;;1.51;91.32;99519.25;5005630;28;20498;-73
2023/11/01 07:18:25;;;;;;;0.90;0.65;;;;;;;2.01;92.67;99522.47;5004603;28;20487;-73
2023/11/01 07:20:51;;;;;;;0.60;0.60;;;;;;;2.43;93.76;99514.41;5005964;28;20030;-72
2023/11/01 07:23:17;;;;;;;1.25;1.15;;;;;;;2.89;94.96;99508.81;4984854;28;20050;-72
2023/11/01 07:25:43;;;;;;;1.95;1.35;;;;;;;3.40;95.72;99513.50;4986670;28;20045;-72
2023/11/01 07:28:08;;;;;;;1.42;1.38;;;;;;;3.83;96.52;99515.41;4986569;28;20121;-72
2023/11/01 07:30:35;;;;;;;0.95;0.95;;;;;;;4.31;96.97;99511.34;4986373;28;20038;-72
2023/11/01 07:33:01;;;;;;;2.70;1.23;;;;;;;4.91;96.44;99508.00;4986656;28;20034;-71
2023/11/01 07:35:26;;;;;;;1.40;1.30;;;;;;;5.40;95.53;99495.94;4985373;28;20061;-71
2023/11/01 07:37:51;;;;;;;1.85;1.23;;;;;;;6.05;94.11;99518.09;4986418;28;20030;-71
2023/11/01 07:40:17;;;;;;;1.23;1.13;;;;;;;6.53;92.27;99505.84;4986280;28;20423;-71
2023/11/01 07:42:45;;;;;;;0.85;0.85;;;;;;;7.09;90.87;99518.34;4986370;28;20030;-71
2023/11/01 07:45:10;;;;;;;2.85;1.90;;;;;;;7.64;88.74;99512.63;5001311;28;20022;-71
2023/11/01 07:47:36;;;;;;;3.42;1.17;;;;;;;7.94;86.22;99508.84;4986467;28;20486;-71
2023/11/01 07:50:04;;;;;;;1.40;1.10;;;;;;;8.38;85.31;99508.31;4986333;28;20027;-71
2023/11/01 07:52:29;;;;;;;0.68;0.68;;;;;;;8.71;82.83;99509.59;4985854;28;20112;-70
2023/11/01 07:54:55;;;;;;;0.80;0.80;;;;;;;8.96;81.03;99511.81;5001374;28;20034;-72
2023/11/01 07:57:20;;;;;;;8.00;1.30;;;;;;;9.32;77.15;99524.16;4986300;28;20027;-71
2023/11/01 07:59:45;;;;;;;2.38;1.30;;;;;;;9.65;73.88;99525.28;4986208;28;20023;-71
2023/11/01 08:02:11;;;;;;;1.15;1.05;;;;;;;9.94;72.89;99520.41;4986094;28;20438;-71
2023/11/01 08:04:36;;;;;;;3.13;1.38;;;;;;;10.31;70.56;99523.13;5000972;28;20023;-71
2023/11/01 08:07:01;;;;;;;3.17;1.10;;;;;;;10.87;74.06;99533.16;4984911;28;20035;-71
2023/11/01 08:09:27;;;;;;;2.58;1.65;;;;;;;11.02;72.48;99529.31;4985880;28;20026;-71
2023/11/01 08:11:52;;;;;;;0.63;0.63;;;;;;;11.33;67.53;99538.09;5000777;28;20054;-74
2023/11/01 08:14:18;;;;;;;0.98;0.45;;;;;;;11.85;72.17;99532.38;4986030;28;20078;-71
2023/11/01 08:16:47;;;;;;;1.65;1.05;;;;;;;12.24;71.88;99536.53;4985870;28;20023;-71
2023/11/01 08:19:13;;;;;;;1.60;0.75;;;;;;;12.16;71.66;99540.25;4986011;28;20034;-72
2023/11/01 08:21:38;;;;;;;1.20;0.65;;;;;;;11.65;67.81;99551.13;4988337;28;20023;-71
2023/11/01 08:24:04;;;;;;;2.00;0.68;;;;;;;10.70;66.96;99551.72;5005350;28;20461;-72
2023/11/01 08:26:30;;;;;;;0.70;0.70;;;;;;;9.67;64.46;99556.34;5005324;28;20018;-72
2023/11/01 08:28:56;;;;;;;2.53;0.90;;;;;;;8.90;64.65;99569.69;5005357;28;20106;-72
2023/11/01 08:31:21;;;;;;;0.65;0.65;;;;;;;8.64;65.41;99568.34;5009102;28;20033;-72
2023/11/01 08:33:46;;;;;;;0.80;0.80;;;;;;;8.76;69.79;99564.72;5009050;28;20033;-72
2023/11/01 08:36:12;;;;;;;1.10;1.00;;;;;;;8.61;70.51;99565.81;5008911;28;20035;-72
2023/11/01 08:38:37;;;;;;;0.80;0.80;;;;;;;8.55;68.80;99566.72;5009016;28;20022;-72
2023/11/01 08:41:02;;;;;;;2.00;1.00;;;;;;;8.81;65.12;99555.16;5008645;28;20229;-72
2023/11/01 08:43:28;;;;;;;1.30;1.20;;;;;;;8.73;63.37;99547.53;5008727;28;20049;-72
2023/11/01 08:45:53;;;;;;;0.60;0.60;;;;;;;9.04;63.86;99559.97;5007577;28;20023;-72
2023/11/01 08:48:18;;;;;;;1.00;0.95;;;;;;;9.81;64.88;99556.09;5008826;28;20479;-73
2023/11/01 08:50:44;;;;;;;1.52;1.02;;;;;;;10.70;63.64;99554.31;5008770;28;20033;-71
2023/11/01 08:53:09;;;;;;;1.15;0.98;;;;;;;11.60;60.76;99545.19;5008597;28;20029;-74
2023/11/01 08:55:35;;;;;;;1.55;0.93;;;;;;;12.30;56.65;99538.09;5008597;28;20034;-73
2023/11/01 08:58:01;;;;;;;0.80;0.60;;;;;;;13.19;63.90;99547.53;5008562;28;20026;-73
2023/11/01 09:00:27;;;;;;;1.33;0.90;;;;;;;12.75;61.56;99551.50;5008554;28;20052;-72
2023/11/01 09:02:52;;;;;;;3.08;1.50;;;;;;;12.67;64.53;99550.91;5007085;28;20037;-74
2023/11/01 09:05:18;;;;;;;1.38;1.08;;;;;;;12.86;65.74;99553.78;5008762;28;20029;-73
2023/11/01 09:07:44;;;;;;;2.33;0.90;;;;;;;13.14;67.53;99542.47;5008226;28;20551;-72
2023/11/01 09:10:09;;;;;;;1.30;0.88;;;;;;;12.39;66.15;99550.84;5008447;28;20034;-73
2023/11/01 09:12:35;;;;;;;1.60;1.10;;;;;;;12.13;68.91;99539.44;5006873;28;20057;-73
2023/11/01 09:15:00;;;;;;;1.10;0.77;;;;;;;12.01;69.22;99542.38;5007048;28;20018;-72
2023/11/01 09:17:26;;;;;;;5.25;1.45;;;;;;;11.51;69.17;99562.75;5008215;28;20033;-73
2023/11/01 09:19:51;;;;;;;0.60;0.60;;;;;;;10.95;67.90;99550.28;5006775;28;20490;-74
2023/11/01 09:22:16;;;;;;;2.08;1.58;;;;;;;10.63;70.09;99542.34;5007748;28;20050;-72
2023/11/01 09:24:42;;;;;;;1.08;0.82;;;;;;;10.29;69.25;99528.34;5007977;28;20053;-72
2023/11/01 09:27:07;;;;;;;1.02;0.95;;;;;;;9.91;69.48;99533.44;5007999;28;20030;-72
2023/11/01 09:29:33;;;;;;;0.80;0.80;;;;;;;9.70;69.05;99535.56;5007968;28;20041;-71
2023/11/01 09:31:59;;;;;;;0.73;0.70;;;;;;;8.80;69.32;99548.28;5007882;28;20071;-72
2023/11/01 09:34:24;;;;;;;0.82;0.70;;;;;;;8.75;72.81;99534.56;5007746;28;20044;-73
2023/11/01 09:36:50;;;;;;;2.35;0.70;;;;;;;9.48;73.73;99540.28;5007784;28;20053;-73
2023/11/01 09:39:15;;;;;;;5.18;1.02;;;;;;;10.07;71.98;99549.53;5007153;28;20062;-72
2023/11/01 09:41:47;;;;;;;1.40;0.88;;;;;;;11.19;72.01;99553.16;5007586;28;20030;-72
2023/11/01 09:44:15;;;;;;;0.60;0.60;;;;;;;11.88;69.90;99552.25;5007778;28;20026;-73
2023/11/01 09:46:41;;;;;;;0.63;0.52;;;;;;;12.58;71.07;99547.69;5006204;28;20113;-73
2023/11/01 09:49:06;;;;;;;0.60;0.60;;;;;;;13.74;64.32;99551.75;5007674;28;20112;-72
2023/11/01 09:51:33;;;;;;;0.70;0.52;;;;;;;14.92;55.66;99554.38;5006114;28;20022;-73
2023/11/01 09:54:00;;;;;;;0.88;0.57;;;;;;;16.09;56.89;99553.84;5007331;28;20022;-73
2023/11/01 09:56:30;;;;;;;2.53;0.85;;;;;;;16.75;55.47;99567.44;5007485;28;20049;-73
2023/11/01 09:58:58;;;;;;;0.45;0.45;;;;;;;17.94;57.64;99559.81;5007436;28;20037;-72
2023/11/01 10:01:25;;;;;;;0.93;0.60;;;;;;;18.57;56.58;99565.25;5007309;28;20453;-73
2023/11/01 10:03:51;;;;;;;1.00;0.60;;;;;;;18.73;56.29;99558.28;5006042;28;20026;-72
2023/11/01 10:06:17;;;;;;;0.45;0.38;;;;;;;18.07;56.79;99567.88;5007305;28;20487;-72
2023/11/01 10:08:43;;;;;;;0.80;0.80;;;;;;;17.45;57.44;99573.69;5005816;28;20022;-72
2023/11/01 10:11:08;;;;;;;0.82;0.68;;;;;;;16.19;57.63;99575.25;5007387;28;20032;-72
2023/11/01 10:13:34;;;;;;;0.50;0.50;;;;;;;14.36;59.85;99570.41;5007110;28;20018;-74
2023/11/01 10:15:59;;;;;;;0.52;0.50;;;;;;;13.19;61.58;99566.63;5005922;28;20045;-73
2023/11/01 10:18:25;;;;;;;0.43;0.43;;;;;;;12.09;62.49;99574.22;5007299;28;20168;-72
2023/11/01 10:20:50;;;;;;;1.23;0.90;;;;;;;11.84;62.71;99590.50;5006948;28;20046;-73
2023/11/01 10:23:17;;;;;;;0.93;0.70;;;;;;;11.87;63.42;99576.53;5006630;28;20061;-72
2023/11/01 10:25:47;;;;;;;0.60;0.60;;;;;;;11.94;63.19;99572.03;5007047;28;20026;-72
2023/11/01 10:28:15;;;;;;;1.38;0.60;;;;;;;11.53;62.83;99571.34;5006960;28;20085;-72
2023/11/01 10:30:44;;;;;;;1.25;0.60;;;;;;;10.72;64.14;99572.44;5006865;28;20387;-72
2023/11/01 10:33:10;;;;;;;1.85;1.00;;;;;;;9.85;65.59;99567.25;5006811;28;20033;-72
2023/11/01 10:35:35;;;;;;;1.85;1.13;;;;;;;9.78;68.36;99559.59;5006851;28;20077;-72
2023/11/01 10:38:02;;;;;;;0.52;0.52;;;;;;;10.07;68.16;99557.31;5006420;28;20022;-72
2023/11/01 10:40:29;;;;;;;1.40;0.60;;;;;;;9.73;68.89;99555.41;5006690;28;20030;-72
2023/11/01 10:42:58;;;;;;;0.65;0.65;;;;;;;9.33;69.83;99549.19;5006517;28;20128;-72
2023/11/01 10:45:23;;;;;;;0.80;0.77;;;;;;;9.40;70.74;99549.06;5006553;28;20033;-74
2023/11/01 10:47:51;;;;;;;0.70;0.70;;;;;;;9.81;70.60;99550.91;5005201;28;20026;-73
2023/11/01 10:50:17;;;;;;;1.20;0.73;;;;;;;10.04;69.80;99541.81;5007713;28;20063;-72
2023/11/01 10:52:43;;;;;;;0.85;0.70;;;;;;;10.48;70.42;99543.56;5006750;28;20073;-73
2023/11/01 10:55:10;;;;;;;0.57;0.57;;;;;;;11.10;68.32;99544.69;5006866;28;20030;-73
2023/11/01 10:57:37;;;;;;;0.50;0.50;;;;;;;10.93;66.90;99546.88;5004993;28;20033;-73
2023/11/01 11:00:13;;;;;;;1.90;0.93;;;;;;;11.07;67.91;99544.78;5006330;28;20067;-73
2023/11/01 11:02:48;;;;;;;1.25;0.70;;;;;;;11.61;67.27;99532.16;5006197;28;20022;-73
2023/11/01 11:05:26;;;;;;;1.15;0.80;;;;;;;12.15;68.25;99536.81;5006338;28;20026;-73
2023/11/01 11:07:53;;;;;;;0.50;0.50;;;;;;;12.94;66.52;99532.69;5005999;28;20085;-72
2023/11/01 11:10:27;;;;;;;0.60;0.60;;;;;;;13.49;64.02;99532.59;5006169;28;20025;-72
2023/11/01 11:13:16;;;;;;;2.53;0.80;;;;;;;13.55;60.48;99536.78;5006123;28;20031;-71
2023/11/01 11:15:51;;;;;;;1.67;0.55;;;;;;;12.98;56.14;99534.28;5004657;28;20022;-72
2023/11/01 11:18:18;;;;;;;0.68;0.50;;;;;;;11.85;59.44;99528.94;5006074;28;20028;-72
2023/11/01 11:20:45;;;;;;;0.98;0.77;;;;;;;11.37;61.19;99529.31;5005998;28;20463;-72
2023/11/01 11:23:13;;;;;;;0.75;0.75;;;;;;;10.51;62.47;99531.34;5005521;28;20046;-72
2023/11/01 11:25:38;;;;;;;1.70;0.77;;;;;;;9.83;63.61;99535.31;5006018;28;20119;-73
2023/11/01 11:28:05;;;;;;;0.57;0.57;;;;;;;9.01;63.36;99535.91;5005797;28;20019;-72
2023/11/01 11:31:11;;;;;;;0.90;0.68;;;;;;;8.06;65.57;99530.25;5004594;28;20073;-71
2023/11/01 11:33:47;;;;;;;0.77;0.77;;;;;;;7.43;67.81;99530.06;5005708;28;20113;-72